Time;durP1;ratioP1;P1;durP2;ratioP2;P2;SDS_P1;SDS_P2;PMS_P1;PMS_P2;Temp;Humidity;BMP_temperature;BMP_pressure;BME280_temperature;BME280_humidity;BME280_pressure;Samples;Min_cycle;Max_cycle;Signal;HPM_P1;HPM_P2
2023/12/25 00:00:05;;;;;;;19.33;15.15;;;7.70;61.30;;;;;;348225;28;1120;-60
2023/12/25 00:00:16;;;;;;;18.98;15.32;;;7.70;61.30;;;;;;348187;28;1084;-58
2023/12/25 00:00:27;;;;;;;19.52;15.45;;;7.70;61.40;;;;;;348176;28;1039;-59
2023/12/25 00:00:38;;;;;;;20.92;16.10;;;7.70;61.40;;;;;;348311;28;972;-57
2023/12/25 00:00:49;;;;;;;21.52;16.33;;;7.70;61.40;;;;;;348265;28;1909;-58
2023/12/25 00:01:00;;;;;;;22.00;16.70;;;7.70;61.40;;;;;;348286;28;1011;-59
2023/12/25 00:01:10;;;;;;;21.52;16.38;;;7.70;61.30;;;;;;348249;28;1103;-58
2023/12/25 00:01:21;;;;;;;20.88;15.93;;;7.70;61.30;;;;;;348173;28;1108;-58
2023/12/25 00:01:32;;;;;;;20.52;15.57;;;7.70;61.30;;;;;;348261;28;1079;-58
2023/12/25 00:01:43;;;;;;;20.65;15.85;;;7.70;61.30;;;;;;348308;28;1132;-60
2023/12/25 00:01:54;;;;;;;21.00;16.30;;;7.70;61.30;;;;;;348249;28;1028;-59
2023/12/25 00:02:04;;;;;;;20.67;16.47;;;7.70;61.40;;;;;;348247;28;1823;-58
2023/12/25 00:02:16;;;;;;;20.42;16.40;;;7.70;61.40;;;;;;348209;28;985;-59
2023/12/25 00:02:27;;;;;;;19.60;16.42;;;7.70;61.40;;;;;;348284;28;1060;-59
2023/12/25 00:02:38;;;;;;;20.98;16.60;;;7.70;61.40;;;;;;348305;28;900;-59
2023/12/25 00:02:48;;;;;;;21.23;16.30;;;7.70;61.40;;;;;;348227;28;1009;-59
2023/12/25 00:02:59;;;;;;;21.27;16.33;;;7.70;61.40;;;;;;348292;28;861;-59
2023/12/25 00:03:10;;;;;;;21.00;16.27;;;7.70;61.30;;;;;;348216;28;1103;-59
2023/12/25 00:03:21;;;;;;;20.65;16.23;;;7.70;61.30;;;;;;348182;28;1087;-58
2023/12/25 00:03:31;;;;;;;20.45;16.73;;;7.60;61.30;;;;;;348309;28;877;-59
2023/12/25 00:03:42;;;;;;;21.65;17.35;;;7.70;61.20;;;;;;348256;28;1056;-58
2023/12/25 00:03:53;;;;;;;21.23;17.60;;;7.70;61.20;;;;;;348213;28;1033;-59
2023/12/25 00:04:04;;;;;;;21.98;17.73;;;7.70;61.30;;;;;;348204;28;1086;-60
2023/12/25 00:04:15;;;;;;;20.23;17.03;;;7.70;61.20;;;;;;348295;28;1024;-58
2023/12/25 00:04:25;;;;;;;20.88;16.88;;;7.70;61.20;;;;;;348180;28;1115;-58
2023/12/25 00:04:36;;;;;;;21.35;17.33;;;7.60;61.20;;;;;;348249;28;1099;-58
2023/12/25 00:04:47;;;;;;;22.83;17.38;;;7.60;61.30;;;;;;348266;28;1043;-58
2023/12/25 00:04:58;;;;;;;22.47;17.50;;;7.70;61.20;;;;;;348122;28;1051;-59
2023/12/25 00:05:09;;;;;;;20.88;16.67;;;7.70;61.30;;;;;;348205;28;1123;-58
2023/12/25 00:05:19;;;;;;;19.90;16.97;;;7.70;61.20;;;;;;348317;28;928;-58
2023/12/25 00:05:31;;;;;;;19.40;17.00;;;7.60;61.30;;;;;;348153;28;1216;-58
2023/12/25 00:05:41;;;;;;;19.23;16.80;;;7.70;61.30;;;;;;348280;28;1071;-58
2023/12/25 00:05:52;;;;;;;19.50;16.33;;;7.70;61.30;;;;;;348295;28;956;-58
2023/12/25 00:06:03;;;;;;;20.05;16.10;;;7.70;61.30;;;;;;348153;28;1036;-58
2023/12/25 00:06:14;;;;;;;19.73;15.70;;;7.70;61.20;;;;;;348245;28;1024;-60
2023/12/25 00:06:25;;;;;;;18.95;15.63;;;7.70;61.20;;;;;;348277;28;1040;-59
2023/12/25 00:06:36;;;;;;;17.92;15.43;;;7.70;61.20;;;;;;348210;28;931;-59
2023/12/25 00:06:46;;;;;;;17.98;15.43;;;7.70;61.20;;;;;;348314;28;885;-57
2023/12/25 00:06:57;;;;;;;17.73;15.23;;;7.70;61.30;;;;;;348188;28;1417;-57
2023/12/25 00:07:10;;;;;;;18.40;15.80;;;7.70;61.20;;;;;;348206;28;953;-57
2023/12/25 00:07:21;;;;;;;18.83;16.05;;;7.60;61.30;;;;;;348249;28;1024;-58
2023/12/25 00:07:31;;;;;;;19.02;15.65;;;7.60;61.30;;;;;;348321;28;985;-59
2023/12/25 00:07:42;;;;;;;19.40;14.98;;;7.70;61.20;;;;;;348252;28;1201;-58
2023/12/25 00:07:53;;;;;;;19.58;15.00;;;7.60;61.20;;;;;;348179;28;1062;-60
2023/12/25 00:08:04;;;;;;;18.65;15.10;;;7.60;61.30;;;;;;348233;28;1016;-58
2023/12/25 00:08:15;;;;;;;18.42;15.05;;;7.70;61.30;;;;;;348271;28;1123;-57
2023/12/25 00:08:25;;;;;;;19.50;15.40;;;7.60;61.30;;;;;;348268;28;1090;-58
2023/12/25 00:08:36;;;;;;;18.98;15.63;;;7.70;61.30;;;;;;348206;28;1053;-59
2023/12/25 00:08:48;;;;;;;19.67;15.85;;;7.70;61.30;;;;;;348274;28;1137;-60
2023/12/25 00:08:59;;;;;;;21.25;15.90;;;7.60;61.30;;;;;;348207;28;2640;-60
2023/12/25 00:09:10;;;;;;;21.55;15.55;;;7.60;61.30;;;;;;348267;28;916;-59
2023/12/25 00:09:21;;;;;;;19.77;15.20;;;7.60;61.30;;;;;;348250;28;1001;-59
2023/12/25 00:09:31;;;;;;;18.92;15.20;;;7.60;61.20;;;;;;348253;28;2014;-58
2023/12/25 00:09:42;;;;;;;18.30;15.30;;;7.60;61.20;;;;;;348243;28;1055;-58
2023/12/25 00:09:53;;;;;;;18.00;14.85;;;7.60;61.30;;;;;;348298;28;996;-58
2023/12/25 00:10:04;;;;;;;19.20;15.00;;;7.60;61.30;;;;;;348293;28;814;-58
2023/12/25 00:10:15;;;;;;;19.88;14.80;;;7.60;61.30;;;;;;348145;28;1018;-58
2023/12/25 00:10:26;;;;;;;20.13;14.93;;;7.60;61.20;;;;;;348223;28;1139;-58
2023/12/25 00:10:37;;;;;;;19.57;15.23;;;7.60;61.20;;;;;;348252;28;1023;-59
2023/12/25 00:10:47;;;;;;;18.95;15.32;;;7.60;61.30;;;;;;348307;28;904;-58
2023/12/25 00:10:58;;;;;;;19.55;15.82;;;7.60;61.20;;;;;;348168;28;1241;-59
2023/12/25 00:11:10;;;;;;;19.67;15.93;;;7.60;61.30;;;;;;348263;28;1047;-58
2023/12/25 00:11:21;;;;;;;17.83;15.02;;;7.60;61.30;;;;;;348255;28;1032;-59
2023/12/25 00:11:31;;;;;;;18.30;14.50;;;7.60;61.30;;;;;;348234;28;965;-58
2023/12/25 00:11:42;;;;;;;17.48;14.00;;;7.60;61.30;;;;;;348189;28;915;-58
2023/12/25 00:11:53;;;;;;;17.85;13.85;;;7.60;61.30;;;;;;348242;28;1253;-58
2023/12/25 00:12:04;;;;;;;17.95;13.60;;;7.60;61.30;;;;;;348248;28;1094;-58
2023/12/25 00:12:15;;;;;;;18.13;13.65;;;7.60;61.30;;;;;;348276;28;973;-59
2023/12/25 00:12:26;;;;;;;17.80;13.52;;;7.60;61.40;;;;;;348153;28;1054;-57
2023/12/25 00:12:37;;;;;;;16.98;13.40;;;7.60;61.30;;;;;;348263;28;1810;-58
2023/12/25 00:12:48;;;;;;;17.27;13.57;;;7.60;61.40;;;;;;348222;28;1048;-58
2023/12/25 00:12:59;;;;;;;17.67;13.88;;;7.60;61.40;;;;;;348266;28;908;-57
2023/12/25 00:13:09;;;;;;;17.63;13.98;;;7.60;61.40;;;;;;348190;28;1012;-58
2023/12/25 00:13:20;;;;;;;17.13;13.88;;;7.60;61.30;;;;;;348261;28;957;-59
2023/12/25 00:13:31;;;;;;;16.17;13.83;;;7.60;61.30;;;;;;348269;28;961;-59
2023/12/25 00:13:42;;;;;;;16.55;13.98;;;7.60;61.30;;;;;;348259;28;846;-59
2023/12/25 00:13:54;;;;;;;17.88;14.23;;;7.60;61.30;;;;;;348198;28;1083;-59
2023/12/25 00:14:05;;;;;;;18.80;14.73;;;7.60;61.30;;;;;;348270;28;992;-58
2023/12/25 00:14:16;;;;;;;18.48;14.57;;;7.60;61.40;;;;;;348272;28;1158;-58
2023/12/25 00:14:27;;;;;;;15.40;13.63;;;7.60;61.40;;;;;;348212;28;972;-58
2023/12/25 00:14:38;;;;;;;15.17;13.37;;;7.60;61.40;;;;;;348213;28;1289;-59
2023/12/25 00:14:48;;;;;;;16.15;13.70;;;7.50;61.40;;;;;;348229;28;1158;-58
2023/12/25 00:14:59;;;;;;;16.83;13.82;;;7.60;61.40;;;;;;348261;28;1120;-58
2023/12/25 00:15:10;;;;;;;17.50;14.00;;;7.60;61.40;;;;;;348222;28;866;-59
2023/12/25 00:15:21;;;;;;;19.42;14.52;;;7.60;61.40;;;;;;348225;28;1107;-59
2023/12/25 00:15:31;;;;;;;20.47;14.80;;;7.60;61.40;;;;;;348262;28;1029;-58
2023/12/25 00:15:42;;;;;;;20.40;14.87;;;7.60;61.40;;;;;;348224;28;1075;-59
2023/12/25 00:15:53;;;;;;;19.38;14.40;;;7.50;61.40;;;;;;348178;28;1000;-58
2023/12/25 00:16:04;;;;;;;18.15;14.10;;;7.60;61.40;;;;;;348253;28;1067;-58
2023/12/25 00:16:15;;;;;;;17.58;14.23;;;7.50;61.40;;;;;;348294;28;870;-58
2023/12/25 00:16:26;;;;;;;17.38;14.45;;;7.60;61.40;;;;;;348263;28;830;-59
2023/12/25 00:16:37;;;;;;;17.52;14.88;;;7.60;61.50;;;;;;348164;28;1071;-58
2023/12/25 00:16:48;;;;;;;18.10;14.85;;;7.60;61.50;;;;;;348242;28;1110;-59
2023/12/25 00:16:59;;;;;;;18.40;14.60;;;7.60;61.50;;;;;;348235;28;1047;-59
2023/12/25 00:17:09;;;;;;;18.05;14.20;;;7.50;61.60;;;;;;348236;28;1099;-59
2023/12/25 00:17:20;;;;;;;18.08;14.45;;;7.50;61.60;;;;;;348179;28;1095;-58
2023/12/25 00:17:31;;;;;;;18.17;14.63;;;7.50;61.60;;;;;;348298;28;1103;-60
2023/12/25 00:17:42;;;;;;;18.03;14.40;;;7.50;61.60;;;;;;348167;28;1053;-59
2023/12/25 00:17:52;;;;;;;18.33;14.25;;;7.60;61.60;;;;;;348248;28;1099;-59
2023/12/25 00:18:03;;;;;;;18.23;14.00;;;7.50;61.60;;;;;;348182;28;1055;-59
2023/12/25 00:18:14;;;;;;;17.98;13.98;;;7.50;61.60;;;;;;348201;28;1123;-56
2023/12/25 00:18:25;;;;;;;17.63;14.15;;;7.50;61.50;;;;;;348171;28;1135;-60
2023/12/25 00:18:36;;;;;;;18.17;14.13;;;7.50;61.50;;;;;;348255;28;1040;-58
2023/12/25 00:18:46;;;;;;;18.90;13.97;;;7.50;61.50;;;;;;348154;28;1072;-58
2023/12/25 00:18:58;;;;;;;19.25;13.95;;;7.50;61.50;;;;;;348236;28;988;-58
2023/12/25 00:19:09;;;;;;;18.45;14.13;;;7.50;61.50;;;;;;348141;28;1543;-59
2023/12/25 00:19:20;;;;;;;18.90;14.68;;;7.60;61.40;;;;;;348267;28;1519;-58
2023/12/25 00:19:30;;;;;;;18.20;14.57;;;7.50;61.50;;;;;;348192;28;1025;-58
2023/12/25 00:19:41;;;;;;;18.40;14.37;;;7.60;61.50;;;;;;348268;28;1115;-59
2023/12/25 00:19:52;;;;;;;18.02;13.77;;;7.50;61.50;;;;;;348179;28;1031;-58
2023/12/25 00:20:04;;;;;;;19.00;14.20;;;7.50;61.50;;;;;;348224;28;1171;-57
2023/12/25 00:20:14;;;;;;;18.88;14.40;;;7.50;61.50;;;;;;348167;28;1139;-59
2023/12/25 00:20:25;;;;;;;18.30;14.05;;;7.50;61.50;;;;;;348249;28;1068;-59
2023/12/25 00:20:36;;;;;;;18.13;13.82;;;7.50;61.50;;;;;;348107;28;1806;-59
2023/12/25 00:20:47;;;;;;;17.70;14.07;;;7.50;61.50;;;;;;348270;28;1087;-59
2023/12/25 00:20:57;;;;;;;16.75;13.80;;;7.50;61.50;;;;;;348146;28;1168;-59
2023/12/25 00:21:08;;;;;;;16.13;13.70;;;7.50;61.50;;;;;;348240;28;1067;-58
2023/12/25 00:21:19;;;;;;;16.38;13.38;;;7.50;61.40;;;;;;348196;28;938;-58
2023/12/25 00:21:30;;;;;;;17.92;14.15;;;7.50;61.40;;;;;;348224;28;1131;-58
2023/12/25 00:21:41;;;;;;;18.42;14.50;;;7.50;61.40;;;;;;348236;28;1037;-59
2023/12/25 00:21:51;;;;;;;18.17;14.40;;;7.50;61.30;;;;;;348293;28;1050;-60
2023/12/25 00:22:02;;;;;;;17.20;13.75;;;7.50;61.30;;;;;;348212;28;1017;-59
2023/12/25 00:22:13;;;;;;;16.77;13.57;;;7.50;61.30;;;;;;348200;28;1040;-58
2023/12/25 00:22:24;;;;;;;17.45;14.10;;;7.50;61.30;;;;;;348254;28;1000;-60
2023/12/25 00:22:35;;;;;;;17.65;14.55;;;7.50;61.30;;;;;;348251;28;1087;-59
2023/12/25 00:22:45;;;;;;;18.25;14.57;;;7.50;61.30;;;;;;348239;28;1051;-58
2023/12/25 00:22:56;;;;;;;18.10;14.50;;;7.50;61.40;;;;;;348203;28;954;-58
2023/12/25 00:23:07;;;;;;;19.63;14.37;;;7.50;61.50;;;;;;348221;28;1028;-58
2023/12/25 00:23:18;;;;;;;19.15;14.00;;;7.50;61.50;;;;;;348210;28;1321;-59
2023/12/25 00:23:28;;;;;;;19.13;14.23;;;7.50;61.50;;;;;;348269;28;1083;-59
2023/12/25 00:23:39;;;;;;;18.48;14.52;;;7.50;61.50;;;;;;348246;28;1115;-59
2023/12/25 00:23:50;;;;;;;18.33;14.98;;;7.50;61.40;;;;;;348187;28;1113;-57
2023/12/25 00:24:01;;;;;;;18.33;14.68;;;7.50;61.40;;;;;;348240;28;897;-58
2023/12/25 00:24:12;;;;;;;18.23;14.87;;;7.50;61.40;;;;;;348261;28;972;-58
2023/12/25 00:24:22;;;;;;;18.45;14.93;;;7.50;61.40;;;;;;348238;28;1138;-59
2023/12/25 00:24:33;;;;;;;18.23;15.02;;;7.50;61.40;;;;;;348265;28;1063;-57
2023/12/25 00:24:44;;;;;;;17.38;14.48;;;7.50;61.40;;;;;;348159;28;1044;-59
2023/12/25 00:24:55;;;;;;;17.90;14.55;;;7.50;61.40;;;;;;348295;28;1024;-58
2023/12/25 00:25:06;;;;;;;17.92;14.38;;;7.50;61.40;;;;;;348187;28;1871;-59
2023/12/25 00:25:17;;;;;;;17.45;14.30;;;7.50;61.40;;;;;;348221;28;1222;-59
2023/12/25 00:25:27;;;;;;;17.63;14.60;;;7.50;61.40;;;;;;348249;28;1032;-58
2023/12/25 00:25:38;;;;;;;17.30;14.20;;;7.50;61.40;;;;;;348195;28;980;-57
2023/12/25 00:25:49;;;;;;;17.65;14.38;;;7.50;61.40;;;;;;348245;28;1036;-58
2023/12/25 00:26:00;;;;;;;17.45;14.45;;;7.50;61.30;;;;;;348253;28;1036;-59
2023/12/25 00:26:10;;;;;;;18.55;14.93;;;7.50;61.40;;;;;;348235;28;1071;-57
2023/12/25 00:26:21;;;;;;;18.58;15.13;;;7.50;61.30;;;;;;348256;28;1112;-58
2023/12/25 00:26:32;;;;;;;17.97;15.00;;;7.50;61.30;;;;;;348163;28;1093;-58
2023/12/25 00:26:43;;;;;;;18.60;15.00;;;7.50;61.30;;;;;;348226;28;1012;-59
2023/12/25 00:26:53;;;;;;;20.50;15.00;;;7.50;61.30;;;;;;348225;28;1040;-57
2023/12/25 00:27:04;;;;;;;20.27;15.02;;;7.50;61.30;;;;;;348249;28;1055;-59
2023/12/25 00:27:15;;;;;;;19.40;15.15;;;7.50;61.30;;;;;;348281;28;857;-58
2023/12/25 00:27:26;;;;;;;17.87;14.90;;;7.50;61.20;;;;;;348191;28;1047;-60
2023/12/25 00:27:36;;;;;;;18.08;15.00;;;7.50;61.20;;;;;;348239;28;1051;-59
2023/12/25 00:27:47;;;;;;;17.70;15.15;;;7.50;61.20;;;;;;348237;28;1096;-59
2023/12/25 00:27:58;;;;;;;19.23;15.52;;;7.50;61.20;;;;;;348173;28;1681;-59
2023/12/25 00:28:09;;;;;;;21.20;15.90;;;7.50;61.20;;;;;;348167;28;1382;-58
2023/12/25 00:28:19;;;;;;;21.87;15.90;;;7.50;61.20;;;;;;348202;28;1107;-59
2023/12/25 00:28:30;;;;;;;21.43;15.83;;;7.50;61.20;;;;;;348225;28;1155;-58
2023/12/25 00:28:41;;;;;;;19.25;15.77;;;7.50;61.30;;;;;;348287;28;1004;-60
2023/12/25 00:28:52;;;;;;;18.77;16.13;;;7.50;61.30;;;;;;348160;28;926;-60
2023/12/25 00:29:02;;;;;;;18.13;16.13;;;7.50;61.30;;;;;;348253;28;996;-58
2023/12/25 00:29:13;;;;;;;18.60;16.17;;;7.50;61.30;;;;;;348271;28;1043;-58
2023/12/25 00:29:24;;;;;;;20.30;16.73;;;7.50;61.30;;;;;;348176;28;1201;-57
2023/12/25 00:29:35;;;;;;;21.70;16.98;;;7.50;61.30;;;;;;348349;28;1127;-58
2023/12/25 00:29:45;;;;;;;20.98;16.85;;;7.40;61.30;;;;;;348558;28;869;-58
2023/12/25 00:29:56;;;;;;;20.88;17.05;;;7.50;61.30;;;;;;348474;28;1174;-60
2023/12/25 00:30:07;;;;;;;20.63;17.17;;;7.40;61.30;;;;;;348505;28;1879;-59
2023/12/25 00:30:18;;;;;;;20.60;16.75;;;7.50;61.30;;;;;;348372;28;1982;-58
2023/12/25 00:30:29;;;;;;;19.80;16.00;;;7.40;61.30;;;;;;348502;28;1009;-58
2023/12/25 00:30:40;;;;;;;21.75;15.85;;;7.40;61.30;;;;;;348512;28;1444;-59
2023/12/25 00:30:51;;;;;;;21.30;15.63;;;7.40;61.30;;;;;;348533;28;1123;-59
2023/12/25 00:31:02;;;;;;;20.67;15.43;;;7.40;61.40;;;;;;348471;28;1059;-57
2023/12/25 00:31:12;;;;;;;18.50;15.45;;;7.40;61.40;;;;;;348529;28;1155;-58
2023/12/25 00:31:23;;;;;;;19.02;15.50;;;7.40;61.40;;;;;;348527;28;912;-58
2023/12/25 00:31:34;;;;;;;18.75;15.60;;;7.40;61.50;;;;;;348545;28;1048;-59
2023/12/25 00:31:47;;;;;;;19.10;15.43;;;7.40;61.40;;;;;;348432;28;1099;-59
2023/12/25 00:31:58;;;;;;;18.67;15.18;;;7.40;61.40;;;;;;348514;28;1068;-60
2023/12/25 00:32:09;;;;;;;18.83;15.60;;;7.40;61.40;;;;;;348480;28;1359;-59
2023/12/25 00:32:20;;;;;;;18.52;15.57;;;7.40;61.40;;;;;;348544;28;1083;-58
2023/12/25 00:32:30;;;;;;;19.05;15.57;;;7.40;61.40;;;;;;348441;28;1083;-58
2023/12/25 00:32:41;;;;;;;18.27;15.10;;;7.40;61.40;;;;;;348583;28;909;-59
2023/12/25 00:32:52;;;;;;;18.50;14.77;;;7.40;61.40;;;;;;348103;28;1040;-59
2023/12/25 00:33:03;;;;;;;18.05;14.30;;;7.40;61.40;;;;;;348537;28;1059;-62
2023/12/25 00:33:14;;;;;;;18.65;14.45;;;7.40;61.40;;;;;;348458;28;1099;-58
2023/12/25 00:33:25;;;;;;;19.08;14.75;;;7.40;61.30;;;;;;348586;28;925;-58
2023/12/25 00:33:35;;;;;;;20.75;15.07;;;7.40;61.30;;;;;;348512;28;1127;-59
2023/12/25 00:33:46;;;;;;;20.05;14.88;;;7.40;61.30;;;;;;348571;28;1012;-59
2023/12/25 00:33:57;;;;;;;18.85;14.75;;;7.40;61.30;;;;;;348411;28;1955;-58
2023/12/25 00:34:08;;;;;;;17.67;14.43;;;7.40;61.30;;;;;;348504;28;1083;-59
2023/12/25 00:34:19;;;;;;;17.35;14.30;;;7.30;61.30;;;;;;348530;28;1032;-58
2023/12/25 00:34:29;;;;;;;17.90;13.97;;;7.40;61.30;;;;;;348541;28;984;-59
2023/12/25 00:34:40;;;;;;;19.00;14.10;;;7.40;61.30;;;;;;348463;28;1106;-59
2023/12/25 00:34:51;;;;;;;20.05;14.13;;;7.40;61.30;;;;;;348556;28;1068;-58
2023/12/25 00:35:02;;;;;;;20.70;14.32;;;7.40;61.40;;;;;;348470;28;1462;-60
2023/12/25 00:35:12;;;;;;;19.90;14.45;;;7.40;61.40;;;;;;348522;28;1087;-59
2023/12/25 00:35:24;;;;;;;18.63;14.50;;;7.40;61.40;;;;;;348437;28;1032;-59
2023/12/25 00:35:34;;;;;;;18.23;14.23;;;7.40;61.30;;;;;;348487;28;1131;-58
2023/12/25 00:35:45;;;;;;;17.77;14.07;;;7.30;61.30;;;;;;348487;28;1182;-59
2023/12/25 00:35:56;;;;;;;18.70;14.02;;;7.40;61.30;;;;;;348593;28;1056;-59
2023/12/25 00:36:07;;;;;;;18.63;14.23;;;7.30;61.30;;;;;;348434;28;972;-59
2023/12/25 00:36:18;;;;;;;19.23;14.07;;;7.40;61.40;;;;;;348533;28;1821;-58
2023/12/25 00:36:28;;;;;;;19.27;14.30;;;7.40;61.40;;;;;;348557;28;1024;-58
2023/12/25 00:36:39;;;;;;;19.10;14.73;;;7.30;61.40;;;;;;348457;28;1288;-57
2023/12/25 00:36:50;;;;;;;18.67;14.93;;;7.30;61.40;;;;;;348426;28;1451;-58
2023/12/25 00:37:01;;;;;;;17.77;14.60;;;7.30;61.40;;;;;;348509;28;984;-57
2023/12/25 00:37:11;;;;;;;16.63;14.07;;;7.40;61.40;;;;;;348529;28;854;-58
2023/12/25 00:37:22;;;;;;;16.35;13.70;;;7.30;61.40;;;;;;348506;28;1052;-58
2023/12/25 00:37:33;;;;;;;16.45;13.88;;;7.30;61.50;;;;;;348399;28;1369;-59
2023/12/25 00:37:44;;;;;;;17.58;13.85;;;7.30;61.50;;;;;;348504;28;1040;-58
2023/12/25 00:37:55;;;;;;;17.60;13.88;;;7.30;61.50;;;;;;348529;28;1039;-60
2023/12/25 00:38:05;;;;;;;16.83;13.30;;;7.30;61.50;;;;;;348477;28;1025;-59
2023/12/25 00:38:16;;;;;;;16.33;13.95;;;7.30;61.40;;;;;;348459;28;918;-59
2023/12/25 00:38:27;;;;;;;17.02;14.25;;;7.30;61.50;;;;;;348546;28;1532;-58
2023/12/25 00:38:38;;;;;;;17.17;14.38;;;7.30;61.50;;;;;;348509;28;1063;-59
2023/12/25 00:38:49;;;;;;;17.55;14.23;;;7.30;61.50;;;;;;348492;28;893;-58
2023/12/25 00:38:59;;;;;;;17.38;14.35;;;7.30;61.40;;;;;;348458;28;879;-58
2023/12/25 00:39:11;;;;;;;17.35;14.60;;;7.30;61.40;;;;;;348442;28;1092;-58
2023/12/25 00:39:22;;;;;;;16.80;14.18;;;7.30;61.40;;;;;;348542;28;1016;-60
2023/12/25 00:39:33;;;;;;;16.08;13.75;;;7.30;61.40;;;;;;348467;28;1041;-58
2023/12/25 00:39:45;;;;;;;16.85;13.77;;;7.30;61.40;;;;;;348546;28;929;-58
2023/12/25 00:39:56;;;;;;;17.48;14.20;;;7.30;61.40;;;;;;348476;28;1544;-59
2023/12/25 00:40:07;;;;;;;17.77;14.27;;;7.30;61.40;;;;;;348386;28;1102;-59
2023/12/25 00:40:18;;;;;;;17.50;14.10;;;7.30;61.40;;;;;;348569;28;936;-60
2023/12/25 00:40:29;;;;;;;16.37;13.63;;;7.30;61.40;;;;;;348589;28;829;-59
2023/12/25 00:40:39;;;;;;;15.67;13.37;;;7.40;61.40;;;;;;348426;28;1115;-58
2023/12/25 00:40:50;;;;;;;15.65;12.98;;;7.30;61.40;;;;;;348522;28;1037;-58
2023/12/25 00:41:01;;;;;;;16.25;13.05;;;7.30;61.40;;;;;;348532;28;1693;-58
2023/12/25 00:41:12;;;;;;;15.85;12.90;;;7.30;61.30;;;;;;348534;28;1477;-59
2023/12/25 00:41:23;;;;;;;16.07;13.13;;;7.30;61.30;;;;;;348499;28;1169;-59
2023/12/25 00:41:34;;;;;;;16.83;13.02;;;7.30;61.30;;;;;;348550;28;1040;-59
2023/12/25 00:41:45;;;;;;;16.75;12.75;;;7.30;61.30;;;;;;348542;28;1087;-58
2023/12/25 00:41:56;;;;;;;16.23;12.65;;;7.30;61.30;;;;;;348457;28;1332;-59
2023/12/25 00:42:06;;;;;;;14.95;12.73;;;7.30;61.30;;;;;;348533;28;1402;-59
2023/12/25 00:42:19;;;;;;;16.10;13.10;;;7.30;61.20;;;;;;348469;28;1273;-59
2023/12/25 00:42:29;;;;;;;16.83;13.02;;;7.30;61.20;;;;;;348469;28;1888;-58
2023/12/25 00:42:40;;;;;;;17.27;13.25;;;7.30;61.20;;;;;;348565;28;988;-58
2023/12/25 00:42:51;;;;;;;15.97;13.07;;;7.30;61.20;;;;;;348554;28;834;-58
2023/12/25 00:43:02;;;;;;;16.20;13.23;;;7.30;61.20;;;;;;348408;28;1052;-59
2023/12/25 00:43:12;;;;;;;16.45;13.20;;;7.30;61.20;;;;;;348482;28;996;-57
2023/12/25 00:43:23;;;;;;;16.05;13.07;;;7.30;61.20;;;;;;348567;28;862;-59
2023/12/25 00:43:34;;;;;;;15.38;12.75;;;7.30;61.20;;;;;;348409;28;1316;-59
2023/12/25 00:43:45;;;;;;;14.50;12.32;;;7.30;61.20;;;;;;348546;28;944;-58
2023/12/25 00:43:56;;;;;;;13.87;12.20;;;7.30;61.20;;;;;;348505;28;1158;-57
2023/12/25 00:44:08;;;;;;;14.73;12.45;;;7.30;61.20;;;;;;348446;28;1035;-58
2023/12/25 00:44:18;;;;;;;15.38;12.80;;;7.30;61.20;;;;;;348532;28;1375;-58
2023/12/25 00:44:29;;;;;;;14.52;12.75;;;7.30;61.20;;;;;;348474;28;1425;-58
2023/12/25 00:44:40;;;;;;;14.43;12.93;;;7.30;61.20;;;;;;348428;28;1204;-58
2023/12/25 00:44:51;;;;;;;15.48;13.43;;;7.30;61.30;;;;;;348351;28;1079;-58
2023/12/25 00:45:01;;;;;;;16.60;13.93;;;7.30;61.20;;;;;;348425;28;935;-58
2023/12/25 00:45:12;;;;;;;17.87;14.17;;;7.30;61.20;;;;;;348296;28;1132;-57
2023/12/25 00:45:23;;;;;;;17.98;13.90;;;7.30;61.20;;;;;;348340;28;1028;-59
2023/12/25 00:45:34;;;;;;;17.55;13.77;;;7.30;61.20;;;;;;348399;28;1103;-57
2023/12/25 00:45:45;;;;;;;16.20;13.48;;;7.30;61.20;;;;;;348340;28;923;-59
2023/12/25 00:45:57;;;;;;;16.27;13.50;;;7.30;61.20;;;;;;348400;28;1563;-57
2023/12/25 00:46:08;;;;;;;16.10;13.40;;;7.30;61.20;;;;;;348394;28;1111;-58
2023/12/25 00:46:19;;;;;;;15.95;12.95;;;7.30;61.20;;;;;;348360;28;938;-57
2023/12/25 00:46:30;;;;;;;15.20;12.73;;;7.30;61.20;;;;;;348474;28;1095;-58
2023/12/25 00:46:40;;;;;;;16.45;12.52;;;7.30;61.30;;;;;;348383;28;1123;-58
2023/12/25 00:46:51;;;;;;;16.63;12.82;;;7.30;61.30;;;;;;348354;28;1189;-58
2023/12/25 00:47:02;;;;;;;16.63;13.68;;;7.20;61.30;;;;;;348535;28;985;-58
2023/12/25 00:47:13;;;;;;;15.75;13.82;;;7.30;61.30;;;;;;348462;28;1558;-59
2023/12/25 00:47:24;;;;;;;15.05;13.43;;;7.30;61.30;;;;;;348491;28;885;-59
2023/12/25 00:47:34;;;;;;;16.10;13.13;;;7.20;61.30;;;;;;348471;28;895;-59
2023/12/25 00:47:45;;;;;;;17.20;12.88;;;7.20;61.30;;;;;;348523;28;904;-59
2023/12/25 00:47:56;;;;;;;17.48;12.82;;;7.30;61.30;;;;;;348468;28;1000;-59
2023/12/25 00:48:07;;;;;;;17.77;13.18;;;7.20;61.40;;;;;;348499;28;837;-59
2023/12/25 00:48:18;;;;;;;16.63;13.43;;;7.20;61.40;;;;;;348450;28;1016;-58
2023/12/25 00:48:28;;;;;;;15.55;12.90;;;7.20;61.40;;;;;;348513;28;570;-58
2023/12/25 00:48:39;;;;;;;14.23;12.37;;;7.20;61.40;;;;;;348536;28;1032;-58
2023/12/25 00:48:50;;;;;;;16.50;12.55;;;7.20;61.40;;;;;;348601;28;815;-58
2023/12/25 00:49:01;;;;;;;16.90;12.93;;;7.20;61.40;;;;;;348432;28;1561;-58
2023/12/25 00:49:12;;;;;;;17.10;13.07;;;7.20;61.40;;;;;;348502;28;1071;-59
2023/12/25 00:49:23;;;;;;;14.82;12.63;;;7.20;61.40;;;;;;348497;28;1032;-58
2023/12/25 00:49:33;;;;;;;15.80;13.07;;;7.20;61.50;;;;;;348531;28;1032;-60
2023/12/25 00:49:44;;;;;;;15.60;13.27;;;7.20;61.50;;;;;;348476;28;987;-59
2023/12/25 00:49:55;;;;;;;16.67;13.60;;;7.20;61.50;;;;;;348538;28;1214;-58
2023/12/25 00:50:06;;;;;;;16.53;13.63;;;7.20;61.50;;;;;;348522;28;1039;-59
2023/12/25 00:50:17;;;;;;;16.98;13.65;;;7.20;61.40;;;;;;348527;28;1824;-58
2023/12/25 00:50:27;;;;;;;16.23;13.35;;;7.20;61.40;;;;;;348357;28;1910;-58
2023/12/25 00:50:38;;;;;;;15.93;13.05;;;7.20;61.40;;;;;;348525;28;997;-59
2023/12/25 00:50:49;;;;;;;15.77;12.98;;;7.20;61.50;;;;;;348514;28;1020;-58
2023/12/25 00:51:00;;;;;;;15.98;13.25;;;7.20;61.50;;;;;;348501;28;1580;-58
2023/12/25 00:51:10;;;;;;;16.27;13.18;;;7.20;61.50;;;;;;348374;28;1303;-58
2023/12/25 00:51:22;;;;;;;16.17;13.27;;;7.20;61.50;;;;;;348521;28;988;-58
2023/12/25 00:51:33;;;;;;;16.94;13.52;;;7.20;61.50;;;;;;348496;28;929;-58
2023/12/25 00:51:44;;;;;;;15.93;13.33;;;7.20;61.50;;;;;;348450;28;1108;-59
2023/12/25 00:51:55;;;;;;;15.65;13.13;;;7.20;61.50;;;;;;348436;28;1225;-59
2023/12/25 00:52:05;;;;;;;16.70;13.60;;;7.20;61.50;;;;;;348473;28;1029;-59
2023/12/25 00:52:17;;;;;;;17.08;13.90;;;7.20;61.50;;;;;;348571;28;818;-58
2023/12/25 00:52:28;;;;;;;16.65;13.68;;;7.20;61.50;;;;;;348410;28;1574;-58
2023/12/25 00:52:39;;;;;;;16.03;13.33;;;7.20;61.50;;;;;;348505;28;1277;-59
2023/12/25 00:52:49;;;;;;;16.00;13.32;;;7.20;61.50;;;;;;348548;28;905;-58
2023/12/25 00:53:00;;;;;;;16.00;13.23;;;7.20;61.50;;;;;;348490;28;1112;-58
2023/12/25 00:53:11;;;;;;;16.08;13.13;;;7.20;61.50;;;;;;348358;28;1658;-59
2023/12/25 00:53:22;;;;;;;16.25;12.90;;;7.20;61.60;;;;;;348519;28;1124;-59
2023/12/25 00:53:32;;;;;;;16.37;13.03;;;7.20;61.60;;;;;;348456;28;1033;-58
2023/12/25 00:53:43;;;;;;;16.42;13.18;;;7.20;61.60;;;;;;348628;28;1036;-60
2023/12/25 00:53:54;;;;;;;16.90;13.65;;;7.20;61.60;;;;;;348414;28;1613;-59
2023/12/25 00:54:05;;;;;;;16.92;13.43;;;7.20;61.60;;;;;;348487;28;913;-57
2023/12/25 00:54:16;;;;;;;17.25;13.25;;;7.20;61.60;;;;;;348530;28;877;-58
2023/12/25 00:54:29;;;;;;;16.65;13.35;;;7.20;61.70;;;;;;348539;28;1024;-58
2023/12/25 00:54:40;;;;;;;16.90;13.57;;;7.20;61.60;;;;;;348426;28;984;-57
2023/12/25 00:54:50;;;;;;;16.55;13.45;;;7.20;61.60;;;;;;348526;28;1040;-59
2023/12/25 00:55:01;;;;;;;17.33;13.23;;;7.20;61.60;;;;;;348525;28;1020;-58
2023/12/25 00:55:12;;;;;;;16.80;13.00;;;7.20;61.60;;;;;;348442;28;1287;-58
2023/12/25 00:55:23;;;;;;;15.85;12.77;;;7.20;61.60;;;;;;348411;28;1261;-58
2023/12/25 00:55:33;;;;;;;15.27;12.75;;;7.20;61.60;;;;;;348506;28;1190;-58
2023/12/25 00:55:44;;;;;;;15.60;12.90;;;7.20;61.60;;;;;;348477;28;1080;-58
2023/12/25 00:55:55;;;;;;;16.52;13.30;;;7.20;61.70;;;;;;348530;28;878;-58
2023/12/25 00:56:06;;;;;;;17.10;13.53;;;7.20;61.70;;;;;;348409;28;1011;-59
2023/12/25 00:56:17;;;;;;;17.08;13.40;;;7.20;61.70;;;;;;348508;28;1142;-58
2023/12/25 00:56:28;;;;;;;16.60;13.02;;;7.20;61.70;;;;;;348461;28;2302;-58
2023/12/25 00:56:39;;;;;;;15.90;13.10;;;7.20;61.70;;;;;;348462;28;1005;-58
2023/12/25 00:56:49;;;;;;;16.00;13.20;;;7.20;61.80;;;;;;348462;28;985;-59
2023/12/25 00:57:00;;;;;;;16.23;13.55;;;7.20;61.70;;;;;;348470;28;1305;-58
2023/12/25 00:57:11;;;;;;;17.10;13.60;;;7.20;61.80;;;;;;348527;28;1059;-58
2023/12/25 00:57:22;;;;;;;18.27;13.98;;;7.20;61.80;;;;;;348324;28;1302;-57
2023/12/25 00:57:33;;;;;;;18.10;13.80;;;7.20;61.80;;;;;;348461;28;945;-59